createdAt,value
2018-06-03T00:01:05.062Z,0
2018-06-03T00:02:15.142Z,0
2018-06-03T00:03:25.281Z,0
2018-06-03T00:04:35.109Z,0
2018-06-03T00:05:45.217Z,0
2018-06-03T00:06:55.043Z,0
2018-06-03T00:08:05.379Z,0
2018-06-03T00:09:15.455Z,0
2018-06-03T00:10:25.566Z,0
2018-06-03T00:11:35.665Z,0
2018-06-03T00:12:45.773Z,0
2018-06-03T00:13:55.859Z,0
2018-06-03T00:15:05.951Z,0
2018-06-03T00:16:15.788Z,0
2018-06-03T00:17:25.884Z,0
2018-06-03T00:18:35.974Z,0
2018-06-03T00:19:45.815Z,0
2018-06-03T00:20:55.970Z,0
2018-06-03T00:22:06.079Z,0
2018-06-03T00:23:16.173Z,0
2018-06-03T00:24:26.254Z,0
2018-06-03T00:25:36.084Z,0
2018-06-03T00:26:45.926Z,0
2018-06-03T00:27:55.750Z,0
2018-06-03T00:29:05.856Z,0
2018-06-03T00:30:15.986Z,0
2018-06-03T00:31:26.317Z,0
2018-06-03T00:32:36.445Z,0
2018-06-03T00:33:46.011Z,0
2018-06-03T00:34:56.089Z,0
2018-06-03T00:36:05.928Z,0
2018-06-03T00:37:15.753Z,0
2018-06-03T00:38:25.846Z,0
2018-06-03T00:39:35.666Z,0
2018-06-03T00:40:45.753Z,0
2018-06-03T00:41:55.853Z,0
2018-06-03T00:43:05.940Z,0
2018-06-03T00:44:16.094Z,0
2018-06-03T00:45:26.168Z,0
2018-06-03T00:46:36.242Z,0
2018-06-03T00:47:46.324Z,0
2018-06-03T00:48:56.411Z,0
2018-06-03T00:50:06.563Z,0
2018-06-03T00:51:16.645Z,0
2018-06-03T00:52:26.736Z,0
2018-06-03T00:53:36.808Z,0
2018-06-03T00:54:46.895Z,0
2018-06-03T00:55:56.504Z,0
2018-06-03T00:57:06.304Z,0
2018-06-03T00:58:16.406Z,0
2018-06-03T00:59:26.206Z,0
2018-06-03T01:00:36.033Z,0
2018-06-03T01:01:46.119Z,0
2018-06-03T01:02:56.196Z,0
2018-06-03T01:04:06.294Z,0
2018-06-03T01:05:16.113Z,0
2018-06-03T01:06:26.217Z,0
2018-06-03T01:07:36.283Z,0
2018-06-03T01:08:46.144Z,0
2018-06-03T01:09:56.246Z,0
2018-06-03T01:11:06.339Z,0
2018-06-03T01:12:16.418Z,0
2018-06-03T01:13:26.516Z,0
2018-06-03T01:14:36.631Z,0
2018-06-03T01:15:46.468Z,0
2018-06-03T01:16:56.567Z,0
2018-06-03T01:18:06.392Z,0
2018-06-03T01:19:16.498Z,0
2018-06-03T01:20:26.591Z,0
2018-06-03T01:21:36.394Z,0
2018-06-03T01:22:46.488Z,0
2018-06-03T01:23:56.567Z,0
2018-06-03T01:25:06.719Z,0
2018-06-03T01:26:16.272Z,0
2018-06-03T01:27:26.091Z,0
2018-06-03T01:28:36.188Z,0
2018-06-03T01:29:46.005Z,0
2018-06-03T01:30:56.140Z,0
2018-06-03T01:32:05.987Z,0
2018-06-03T01:33:16.099Z,0
2018-06-03T01:34:26.236Z,0
2018-06-03T01:35:36.325Z,0
2018-06-03T01:36:46.128Z,0
2018-06-03T01:37:55.978Z,0
2018-06-03T01:39:06.084Z,0
2018-06-03T01:40:16.179Z,0
2018-06-03T01:41:26.268Z,0
2018-06-03T01:42:36.382Z,0
2018-06-03T01:43:46.464Z,0
2018-06-03T01:44:56.292Z,0
2018-06-03T01:46:06.382Z,0
2018-06-03T01:47:16.188Z,0
2018-06-03T01:48:26.317Z,0
2018-06-03T01:49:36.416Z,0
2018-06-03T01:50:46.506Z,0
2018-06-03T01:51:56.077Z,0
2018-06-03T01:53:06.168Z,0
2018-06-03T01:54:16.291Z,0
2018-06-03T01:55:26.115Z,0
2018-06-03T01:56:36.196Z,0
2018-06-03T01:57:46.287Z,0
2018-06-03T01:58:56.383Z,0
2018-06-03T02:00:06.478Z,0
2018-06-03T02:01:16.411Z,0
2018-06-03T02:02:26.280Z,0
2018-06-03T02:03:36.355Z,0
2018-06-03T02:04:46.182Z,0
2018-06-03T02:05:56.286Z,0
2018-06-03T02:07:06.108Z,0
2018-06-03T02:08:16.213Z,0
2018-06-03T02:09:26.343Z,0
2018-06-03T02:10:36.430Z,0
2018-06-03T02:11:46.527Z,0
2018-06-03T02:12:56.359Z,0
2018-06-03T02:14:06.447Z,0
2018-06-03T02:15:16.472Z,0
2018-06-03T02:16:26.583Z,0
2018-06-03T02:17:36.718Z,0
2018-06-03T02:18:46.801Z,0
2018-06-03T02:19:56.897Z,0
2018-06-03T02:21:06.999Z,0
2018-06-03T02:22:16.812Z,0
2018-06-03T02:23:26.886Z,0
2018-06-03T02:24:36.711Z,0
2018-06-03T02:25:46.800Z,0
2018-06-03T02:26:56.898Z,0
2018-06-03T02:28:06.993Z,0
2018-06-03T02:29:17.279Z,0
2018-06-03T02:30:27.405Z,0
2018-06-03T02:31:37.491Z,0
2018-06-03T02:32:47.588Z,0
2018-06-03T02:33:57.421Z,0
2018-06-03T02:35:07.236Z,0
2018-06-03T02:36:17.325Z,0
2018-06-03T02:37:27.431Z,0
2018-06-03T02:38:37.580Z,0
2018-06-03T02:39:47.143Z,0
2018-06-03T02:40:57.263Z,0
2018-06-03T02:42:07.342Z,0
2018-06-03T02:43:17.459Z,0
2018-06-03T02:44:27.306Z,0
2018-06-03T02:45:37.399Z,0
2018-06-03T02:46:47.499Z,0
2018-06-03T02:47:57.833Z,0
2018-06-03T02:49:07.731Z,0
2018-06-03T02:50:17.823Z,0
2018-06-03T02:51:27.954Z,0
2018-06-03T02:52:37.978Z,0
2018-06-03T02:53:48.067Z,5
2018-06-03T02:54:57.911Z,5
2018-06-03T02:56:08.019Z,5
2018-06-03T02:57:18.125Z,5
2018-06-03T02:58:28.213Z,5
2018-06-03T02:59:38.300Z,5
2018-06-03T03:00:48.421Z,5
2018-06-03T03:01:58.513Z,5
2018-06-03T03:34:46.939Z,45
2018-06-03T03:35:57.057Z,50
2018-06-03T03:37:07.132Z,50
2018-06-03T03:38:16.946Z,50
2018-06-03T03:39:26.763Z,55
2018-06-03T03:40:36.927Z,55
2018-06-03T03:41:46.748Z,55
2018-06-03T03:42:56.578Z,55
2018-06-03T03:44:06.664Z,55
2018-06-03T03:45:16.751Z,60
2018-06-03T03:46:26.904Z,60
2018-06-03T03:47:36.729Z,60
2018-06-03T03:48:46.812Z,60
2018-06-03T03:49:56.894Z,60
2018-06-03T03:51:06.997Z,60
2018-06-03T03:52:17.135Z,60
2018-06-03T03:53:27.195Z,65
2018-06-03T03:54:37.278Z,65
2018-06-03T03:55:47.096Z,65
2018-06-03T03:56:56.919Z,70
2018-06-03T03:58:06.753Z,70
2018-06-03T03:59:16.569Z,75
2018-06-03T04:00:26.647Z,75
2018-06-03T04:01:36.460Z,80
2018-06-03T04:02:46.291Z,80
2018-06-03T04:03:56.376Z,80
2018-06-03T04:05:06.458Z,80
2018-06-03T04:06:16.550Z,85
2018-06-03T04:07:26.648Z,85
2018-06-03T04:08:36.737Z,85
2018-06-03T04:09:46.821Z,90
2018-06-03T04:10:56.894Z,90
2018-06-03T04:12:06.728Z,100
2018-06-03T04:13:16.390Z,100
2018-06-03T04:14:26.525Z,100
2018-06-03T04:15:36.349Z,110
2018-06-03T04:16:46.449Z,115
2018-06-03T04:17:56.299Z,125
2018-06-03T04:19:06.375Z,175
2018-06-03T04:20:16.463Z,210
2018-06-03T04:21:26.546Z,240
2018-06-03T04:22:36.635Z,275
2018-06-03T04:23:46.730Z,305
2018-06-03T04:24:56.825Z,350
2018-06-03T04:26:06.647Z,355
2018-06-03T04:27:16.194Z,350
2018-06-03T04:28:26.275Z,370
2018-06-03T04:29:36.099Z,370
2018-06-03T04:30:45.922Z,405
2018-06-03T04:31:56.004Z,405
2018-06-03T04:33:06.086Z,410
2018-06-03T04:34:16.173Z,415
2018-06-03T04:35:25.998Z,425
2018-06-03T04:36:36.092Z,425
2018-06-03T04:37:46.180Z,395
2018-06-03T04:38:56.282Z,375
2018-06-03T04:40:06.093Z,360
2018-06-03T04:41:16.301Z,385
2018-06-03T04:42:26.397Z,400
2018-06-03T04:43:36.486Z,380
2018-06-03T04:44:46.580Z,365
2018-06-03T04:45:56.677Z,360
2018-06-03T04:47:06.766Z,390
2018-06-03T04:48:16.846Z,395
2018-06-03T04:49:27.146Z,385
2018-06-03T04:50:37.284Z,375
2018-06-03T04:51:47.378Z,405
2018-06-03T04:52:57.496Z,455
2018-06-03T04:54:07.320Z,470
2018-06-03T04:55:17.265Z,500
2018-06-03T04:56:27.642Z,535
2018-06-03T04:57:37.726Z,535
2018-06-03T04:58:47.823Z,470
2018-06-03T04:59:57.891Z,460
2018-06-03T05:01:07.708Z,520
2018-06-03T05:02:17.824Z,505
2018-06-03T05:03:27.649Z,445
2018-06-03T05:04:37.732Z,410
2018-06-03T05:05:48.048Z,405
2018-06-03T05:06:57.875Z,410
2018-06-03T05:08:08.023Z,410
2018-06-03T05:09:17.845Z,400
2018-06-03T05:10:27.951Z,375
2018-06-03T05:11:37.768Z,370
2018-06-03T05:12:47.861Z,385
2018-06-03T05:13:58.011Z,395
2018-06-03T05:15:07.844Z,390
2018-06-03T05:16:17.930Z,375
2018-06-03T05:17:27.752Z,375
2018-06-03T05:18:37.834Z,400
2018-06-03T05:19:47.669Z,400
2018-06-03T05:20:57.760Z,365
2018-06-03T05:22:07.844Z,340
2018-06-03T05:23:17.675Z,355
2018-06-03T05:24:27.775Z,370
2018-06-03T05:25:37.848Z,360
2018-06-03T05:26:47.937Z,350
2018-06-03T05:27:57.771Z,355
2018-06-03T05:29:07.606Z,345
2018-06-03T05:30:17.703Z,340
2018-06-03T05:31:27.859Z,355
2018-06-03T05:32:37.677Z,385
2018-06-03T05:33:47.738Z,390
2018-06-03T05:34:57.837Z,390
2018-06-03T05:36:07.926Z,370
2018-06-03T05:37:17.741Z,365
2018-06-03T05:38:26.771Z,330
2018-06-03T05:39:36.845Z,310
2018-06-03T05:40:46.923Z,300
2018-06-03T05:41:57.023Z,300
2018-06-03T05:43:07.139Z,315
2018-06-03T05:44:17.218Z,305
2018-06-03T05:45:27.033Z,285
2018-06-03T05:46:37.124Z,285
2018-06-03T05:47:47.203Z,280
2018-06-03T05:48:57.296Z,280
2018-06-03T05:50:07.369Z,270
2018-06-03T05:51:17.175Z,280
2018-06-03T05:52:27.262Z,275
2018-06-03T05:53:37.329Z,270
2018-06-03T05:54:47.442Z,255
2018-06-03T05:55:57.136Z,245
2018-06-03T05:57:07.202Z,255
2018-06-03T05:58:17.288Z,255
2018-06-03T05:59:27.376Z,255
2018-06-03T06:00:37.533Z,255
2018-06-03T06:01:47.626Z,255
2018-06-03T06:02:57.438Z,255
2018-06-03T06:04:07.554Z,255
2018-06-03T06:05:17.634Z,255
2018-06-03T06:06:27.452Z,245
2018-06-03T06:07:37.533Z,230
2018-06-03T06:08:47.368Z,225
2018-06-03T06:09:57.205Z,225
2018-06-03T06:11:07.299Z,225
2018-06-03T06:12:17.390Z,225
2018-06-03T06:13:27.485Z,225
2018-06-03T06:14:37.583Z,225
2018-06-03T06:15:47.677Z,240
2018-06-03T06:16:57.752Z,245
2018-06-03T06:18:07.841Z,250
2018-06-03T06:19:17.929Z,255
2018-06-03T06:20:28.013Z,250
2018-06-03T06:21:38.091Z,245
2018-06-03T06:22:48.177Z,240
2018-06-03T06:23:58.284Z,235
2018-06-03T06:25:08.366Z,235
2018-06-03T06:26:18.435Z,235
2018-06-03T06:27:28.535Z,230
2018-06-03T06:28:38.621Z,230
2018-06-03T06:29:48.695Z,235
2018-06-03T06:30:58.801Z,235
2018-06-03T06:32:08.905Z,240
2018-06-03T06:33:18.995Z,250
2018-06-03T06:34:29.089Z,245
2018-06-03T06:35:39.188Z,245
2018-06-03T06:36:49.263Z,250
2018-06-03T06:37:59.378Z,250
2018-06-03T06:39:09.489Z,250
2018-06-03T06:40:19.580Z,255
2018-06-03T06:41:29.761Z,255
2018-06-03T06:42:39.865Z,260
2018-06-03T06:43:49.729Z,260
2018-06-03T06:44:59.818Z,260
2018-06-03T06:46:09.908Z,255
2018-06-03T06:47:20.052Z,255
2018-06-03T06:48:29.889Z,260
2018-06-03T06:49:39.971Z,260
2018-06-03T06:50:50.082Z,265
2018-06-03T06:51:59.929Z,265
2018-06-03T06:53:09.764Z,260
2018-06-03T06:54:19.605Z,255
2018-06-03T06:55:29.455Z,255
2018-06-03T06:56:39.561Z,255
2018-06-03T06:57:49.688Z,255
2018-06-03T06:58:59.782Z,250
2018-06-03T07:00:09.667Z,250
2018-06-03T07:01:19.788Z,245
2018-06-03T07:02:29.898Z,245
2018-06-03T07:03:40.022Z,240
2018-06-03T07:04:50.104Z,240
2018-06-03T07:06:00.198Z,240
2018-06-03T07:07:09.796Z,240
2018-06-03T07:08:19.876Z,235
2018-06-03T07:09:29.711Z,235
2018-06-03T07:10:39.554Z,235
2018-06-03T07:11:49.389Z,235
2018-06-03T07:12:59.503Z,235
2018-06-03T07:14:09.329Z,235
2018-06-03T07:15:19.425Z,235
2018-06-03T07:16:29.526Z,230
2018-06-03T07:17:39.613Z,230
2018-06-03T07:18:49.442Z,225
2018-06-03T07:19:59.540Z,230
2018-06-03T07:21:09.380Z,230
2018-06-03T07:22:19.220Z,225
2018-06-03T07:23:29.405Z,225
2018-06-03T07:24:39.227Z,225
2018-06-03T07:25:49.054Z,230
2018-06-03T07:26:59.189Z,225
2018-06-03T07:28:09.030Z,225
2018-06-03T07:29:19.153Z,225
2018-06-03T07:30:29.005Z,225
2018-06-03T07:31:38.845Z,220
2018-06-03T07:32:48.935Z,220
2018-06-03T07:33:59.027Z,215
2018-06-03T07:35:09.144Z,215
2018-06-03T07:36:19.264Z,220
2018-06-03T07:37:29.447Z,215
2018-06-03T07:38:39.306Z,220
2018-06-03T07:39:49.629Z,215
2018-06-03T07:40:59.735Z,220
2018-06-03T07:42:09.582Z,220
2018-06-03T07:43:19.664Z,220
2018-06-03T07:44:29.816Z,225
2018-06-03T07:45:39.916Z,225
2018-06-03T07:46:50.019Z,225
2018-06-03T07:48:00.126Z,225
2018-06-03T07:49:10.251Z,225
2018-06-03T07:50:20.413Z,225
2018-06-03T07:51:30.537Z,225
2018-06-03T07:52:40.391Z,230
2018-06-03T07:53:50.250Z,230
2018-06-03T07:55:00.344Z,230
2018-06-03T07:56:10.457Z,230
2018-06-03T07:57:20.636Z,230
2018-06-03T07:58:30.759Z,230
2018-06-03T07:59:40.863Z,235
2018-06-03T08:00:50.978Z,230
2018-06-03T08:02:00.843Z,230
2018-06-03T08:03:11.119Z,240
2018-06-03T08:04:21.259Z,235
2018-06-03T08:05:31.111Z,235
2018-06-03T08:06:40.968Z,235
2018-06-03T08:07:50.805Z,235
2018-06-03T08:09:00.920Z,240
2018-06-03T08:10:10.761Z,235
2018-06-03T08:11:20.842Z,235
2018-06-03T08:12:30.969Z,235
2018-06-03T08:13:41.141Z,235
2018-06-03T08:14:51.289Z,235
2018-06-03T08:16:01.400Z,235
2018-06-03T08:17:11.500Z,235
2018-06-03T08:18:21.606Z,235
2018-06-03T08:19:31.710Z,235
2018-06-03T08:20:41.821Z,240
2018-06-03T08:21:51.940Z,235
2018-06-03T08:23:02.172Z,235
2018-06-03T08:24:12.312Z,230
2018-06-03T08:25:22.161Z,230
2018-06-03T08:26:31.986Z,230
2018-06-03T08:27:42.103Z,230
2018-06-03T08:28:52.213Z,230
2018-06-03T08:30:02.142Z,230
2018-06-03T08:31:12.277Z,230
2018-06-03T08:32:22.409Z,230
2018-06-03T08:33:32.565Z,230
2018-06-03T08:34:42.695Z,225
2018-06-03T08:35:52.806Z,225
2018-06-03T08:37:02.910Z,225
2018-06-03T08:38:13.008Z,225
2018-06-03T08:39:23.163Z,225
2018-06-03T08:40:33.309Z,225
2018-06-03T08:41:43.471Z,225
2018-06-03T08:42:53.567Z,220
2018-06-03T08:44:03.660Z,215
2018-06-03T08:45:13.228Z,220
2018-06-03T08:46:23.330Z,215
2018-06-03T08:47:33.421Z,215
2018-06-03T08:48:43.534Z,210
2018-06-03T08:49:53.634Z,210
2018-06-03T08:51:03.743Z,210
2018-06-03T08:52:14.218Z,205
2018-06-03T08:53:24.355Z,205
2018-06-03T08:54:34.467Z,205
2018-06-03T08:55:44.562Z,205
2018-06-03T08:56:54.671Z,205
2018-06-03T08:58:04.776Z,205
2018-06-03T08:59:14.858Z,205
2018-06-03T09:00:25.002Z,205
2018-06-03T09:01:35.132Z,205
2018-06-03T09:02:45.262Z,205
2018-06-03T09:03:55.335Z,205
2018-06-03T09:05:05.444Z,205
2018-06-03T09:06:15.527Z,205
2018-06-03T09:07:25.675Z,205
2018-06-03T09:08:35.778Z,210
2018-06-03T09:09:45.889Z,215
2018-06-03T09:10:56.003Z,210
2018-06-03T09:12:05.851Z,205
2018-06-03T09:13:16.208Z,215
2018-06-03T09:14:26.310Z,220
2018-06-03T09:15:36.418Z,225
2018-06-03T09:16:46.532Z,225
2018-06-03T09:17:56.357Z,225
2018-06-03T09:19:06.490Z,225
2018-06-03T09:20:16.337Z,230
2018-06-03T09:21:26.417Z,230
2018-06-03T09:22:36.522Z,235
2018-06-03T09:23:46.621Z,250
2018-06-03T09:24:56.515Z,245
2018-06-03T09:26:06.615Z,250
2018-06-03T09:27:16.723Z,245
2018-06-03T09:28:26.829Z,250
2018-06-03T09:29:36.653Z,245
2018-06-03T09:30:45.945Z,245
2018-06-03T09:31:56.032Z,245
2018-06-03T09:33:06.134Z,245
2018-06-03T09:34:16.228Z,250
2018-06-03T09:35:26.332Z,250
2018-06-03T09:36:36.453Z,250
2018-06-03T09:37:46.282Z,255
2018-06-03T09:38:56.338Z,260
2018-06-03T09:40:06.455Z,260
2018-06-03T09:41:16.582Z,265
2018-06-03T09:42:26.706Z,265
2018-06-03T09:43:36.813Z,265
2018-06-03T09:44:47.264Z,265
2018-06-03T09:45:57.372Z,270
2018-06-03T09:47:07.483Z,255
2018-06-03T09:48:17.404Z,265
2018-06-03T09:49:27.551Z,270
2018-06-03T09:50:37.651Z,270
2018-06-03T09:51:47.765Z,275
2018-06-03T09:52:57.642Z,280
2018-06-03T09:54:07.541Z,280
2018-06-03T09:55:17.648Z,275
2018-06-03T09:56:27.792Z,275
2018-06-03T09:57:37.900Z,280
2018-06-03T09:58:48.030Z,280
2018-06-03T09:59:58.192Z,280
2018-06-03T10:01:08.040Z,280
2018-06-03T10:02:18.139Z,280
2018-06-03T10:03:28.247Z,280
2018-06-03T10:04:38.078Z,280
2018-06-03T10:05:48.236Z,280
2018-06-03T10:06:58.321Z,280
2018-06-03T10:08:08.440Z,285
2018-06-03T10:09:18.537Z,285
2018-06-03T10:10:28.131Z,290
2018-06-03T10:11:38.241Z,285
2018-06-03T10:12:48.328Z,285
2018-06-03T10:13:58.175Z,285
2018-06-03T10:15:08.292Z,285
2018-06-03T10:16:18.644Z,285
2018-06-03T10:17:28.732Z,295
2018-06-03T10:18:38.824Z,295
2018-06-03T10:19:48.913Z,300
2018-06-03T10:20:59.019Z,300
2018-06-03T10:22:08.865Z,300
2018-06-03T10:23:18.703Z,300
2018-06-03T10:24:28.801Z,245
2018-06-03T10:25:38.901Z,305
2018-06-03T10:26:49.033Z,305
2018-06-03T10:27:59.132Z,305
2018-06-03T10:29:09.225Z,305
2018-06-03T10:30:19.329Z,310
2018-06-03T10:31:29.169Z,310
2018-06-03T10:32:39.005Z,310
2018-06-03T10:33:49.393Z,310
2018-06-03T10:34:59.281Z,315
2018-06-03T10:36:09.408Z,310
2018-06-03T10:37:19.488Z,310
2018-06-03T10:38:29.578Z,310
2018-06-03T10:39:39.703Z,310
2018-06-03T10:40:49.790Z,295
2018-06-03T10:41:59.643Z,295
2018-06-03T10:43:09.752Z,295
2018-06-03T10:44:19.917Z,290
2018-06-03T10:45:29.763Z,290
2018-06-03T10:46:39.870Z,300
2018-06-03T10:47:49.972Z,310
2018-06-03T10:49:00.091Z,305
2018-06-03T10:50:10.169Z,300
2018-06-03T10:51:20.275Z,300
2018-06-03T10:52:30.385Z,295
2018-06-03T10:53:40.521Z,240
2018-06-03T10:54:50.621Z,315
2018-06-03T10:56:00.709Z,315
2018-06-03T10:57:10.837Z,320
2018-06-03T10:58:20.937Z,315
2018-06-03T10:59:31.097Z,320
2018-06-03T11:00:41.204Z,335
2018-06-03T11:01:51.308Z,335
2018-06-03T11:03:01.390Z,335
2018-06-03T11:04:11.237Z,325
2018-06-03T11:05:21.354Z,320
2018-06-03T11:06:31.197Z,320
2018-06-03T11:07:41.305Z,270
2018-06-03T11:08:50.894Z,315
2018-06-03T11:10:00.730Z,320
2018-06-03T11:11:10.965Z,320
2018-06-03T11:12:21.065Z,320
2018-06-03T11:13:31.183Z,325
2018-06-03T11:14:40.832Z,300
2018-06-03T11:15:50.958Z,220
2018-06-03T11:17:01.052Z,220
2018-06-03T11:18:11.162Z,220
2018-06-03T11:19:21.272Z,225
2018-06-03T11:20:31.386Z,300
2018-06-03T11:21:41.536Z,295
2018-06-03T11:22:51.660Z,295
2018-06-03T11:24:01.781Z,260
2018-06-03T11:25:11.924Z,295
2018-06-03T11:26:22.047Z,230
2018-06-03T11:27:32.500Z,280
2018-06-03T11:28:42.369Z,280
2018-06-03T11:29:51.921Z,240
2018-06-03T11:31:01.772Z,195
2018-06-03T11:32:11.906Z,185
2018-06-03T11:33:22.010Z,185
2018-06-03T11:34:32.154Z,180
2018-06-03T11:35:42.279Z,180
2018-06-03T11:36:52.378Z,185
2018-06-03T11:38:02.243Z,175
2018-06-03T11:39:12.080Z,170
2018-06-03T11:40:22.310Z,170
2018-06-03T11:41:32.441Z,175
2018-06-03T11:42:42.573Z,260
2018-06-03T11:43:52.685Z,255
2018-06-03T11:45:02.579Z,245
2018-06-03T11:46:12.769Z,235
2018-06-03T11:47:22.617Z,210
2018-06-03T11:48:32.770Z,200
2018-06-03T11:49:42.871Z,205
2018-06-03T11:50:52.968Z,200
2018-06-03T11:52:02.831Z,195
2018-06-03T11:53:12.685Z,170
2018-06-03T11:54:22.804Z,175
2018-06-03T11:55:32.920Z,200
2018-06-03T11:56:43.019Z,190
2018-06-03T11:57:53.117Z,180
2018-06-03T11:59:03.247Z,155
2018-06-03T12:00:13.412Z,155
2018-06-03T12:01:23.300Z,155
2018-06-03T12:02:33.161Z,175
2018-06-03T12:03:43.250Z,175
2018-06-03T12:04:53.381Z,170
2018-06-03T12:06:03.484Z,175
2018-06-03T12:07:13.573Z,175
2018-06-03T12:08:23.492Z,170
2018-06-03T12:09:33.614Z,160
2018-06-03T12:10:43.727Z,155
2018-06-03T12:11:53.854Z,150
2018-06-03T12:13:03.732Z,150
2018-06-03T12:14:13.571Z,160
2018-06-03T12:15:23.783Z,175
2018-06-03T12:16:33.885Z,170
2018-06-03T12:17:43.966Z,170
2018-06-03T12:18:54.089Z,175
2018-06-03T12:20:04.214Z,180
2018-06-03T12:21:14.054Z,185
2018-06-03T12:22:23.895Z,190
2018-06-03T12:23:33.994Z,185
2018-06-03T12:24:44.108Z,160
2018-06-03T12:25:54.216Z,200
2018-06-03T12:27:04.112Z,205
2018-06-03T12:28:14.218Z,215
2018-06-03T12:29:24.338Z,220
2018-06-03T12:30:34.193Z,215
2018-06-03T12:31:44.035Z,220
2018-06-03T12:32:53.865Z,215
2018-06-03T12:34:03.700Z,200
2018-06-03T12:35:13.535Z,130
2018-06-03T12:36:23.094Z,130
2018-06-03T12:37:33.196Z,135
2018-06-03T12:38:43.357Z,165
2018-06-03T12:39:53.197Z,175
2018-06-03T12:41:03.039Z,175
2018-06-03T12:42:13.196Z,180
2018-06-03T12:43:23.313Z,180
2018-06-03T12:44:33.426Z,185
2018-06-03T12:45:43.515Z,190
2018-06-03T12:46:53.614Z,195
2018-06-03T12:48:03.699Z,210
2018-06-03T12:49:13.812Z,215
2018-06-03T12:50:23.637Z,225
2018-06-03T12:51:33.813Z,235
2018-06-03T12:52:43.661Z,230
2018-06-03T12:53:53.765Z,235
2018-06-03T12:55:03.634Z,230
2018-06-03T12:56:13.786Z,230
2018-06-03T12:57:23.629Z,225
2018-06-03T12:58:33.776Z,220
2018-06-03T12:59:44.137Z,220
2018-06-03T13:00:54.474Z,215
2018-06-03T13:02:04.651Z,140
2018-06-03T13:03:15.064Z,145
2018-06-03T13:04:24.640Z,130
2018-06-03T13:05:34.809Z,125
2018-06-03T13:06:44.934Z,205
2018-06-03T13:07:54.841Z,205
2018-06-03T13:09:04.947Z,210
2018-06-03T13:10:15.106Z,215
2018-06-03T13:11:24.977Z,230
2018-06-03T13:12:35.087Z,235
2018-06-03T13:13:44.985Z,235
2018-06-03T13:14:55.082Z,245
2018-06-03T13:16:05.203Z,185
2018-06-03T13:17:14.790Z,160
2018-06-03T13:18:25.006Z,160
2018-06-03T13:19:34.895Z,185
2018-06-03T13:20:44.776Z,250
2018-06-03T13:21:54.802Z,240
2018-06-03T13:23:06.170Z,235
2018-06-03T13:24:16.254Z,230
2018-06-03T13:25:26.427Z,230
2018-06-03T13:26:36.535Z,195
2018-06-03T13:27:46.389Z,230
2018-06-03T13:28:56.521Z,230
2018-06-03T13:30:06.655Z,230
2018-06-03T13:31:16.784Z,230
2018-06-03T13:32:26.886Z,230
2018-06-03T13:33:36.995Z,230
2018-06-03T13:34:47.104Z,235
2018-06-03T13:35:56.709Z,235
2018-06-03T13:37:06.806Z,235
2018-06-03T13:38:16.659Z,245
2018-06-03T13:39:26.506Z,240
2018-06-03T13:40:36.356Z,165
2018-06-03T13:41:46.459Z,150
2018-06-03T13:42:56.292Z,145
2018-06-03T13:44:06.202Z,145
2018-06-03T13:45:16.302Z,140
2018-06-03T13:46:26.432Z,145
2018-06-03T13:47:36.530Z,230
2018-06-03T13:48:46.701Z,230
2018-06-03T13:49:56.833Z,230
2018-06-03T13:51:06.948Z,225
2018-06-03T13:52:17.042Z,150
2018-06-03T13:53:27.173Z,225
2018-06-03T13:54:37.355Z,200
2018-06-03T13:55:47.467Z,145
2018-06-03T13:56:57.584Z,220
2018-06-03T13:58:07.677Z,215
2018-06-03T13:59:17.792Z,150
2018-06-03T14:00:27.617Z,170
2018-06-03T14:01:37.768Z,155
2018-06-03T14:02:47.375Z,230
2018-06-03T14:03:57.199Z,230
2018-06-03T14:05:07.297Z,155
2018-06-03T14:06:16.962Z,235
2018-06-03T14:07:27.083Z,240
2018-06-03T14:08:37.207Z,245
2018-06-03T14:09:47.325Z,250
2018-06-03T14:10:57.479Z,245
2018-06-03T14:12:07.411Z,245
2018-06-03T14:13:17.539Z,235
2018-06-03T14:14:27.646Z,240
2018-06-03T14:15:37.219Z,235
2018-06-03T14:16:47.078Z,235
2018-06-03T14:17:56.927Z,240
2018-06-03T14:19:07.071Z,245
2018-06-03T14:20:17.178Z,240
2018-06-03T14:21:27.323Z,205
2018-06-03T14:22:37.419Z,170
2018-06-03T14:23:47.544Z,165
2018-06-03T14:24:57.397Z,165
2018-06-03T14:26:07.495Z,245
2018-06-03T14:27:17.617Z,250
2018-06-03T14:28:27.740Z,260
2018-06-03T14:29:37.903Z,260
2018-06-03T14:30:48.057Z,260
2018-06-03T14:31:58.374Z,260
2018-06-03T14:33:08.510Z,240
2018-06-03T14:34:18.618Z,185
2018-06-03T14:35:28.559Z,185
2018-06-03T14:36:38.694Z,255
2018-06-03T14:37:48.787Z,240
2018-06-03T14:38:58.619Z,240
2018-06-03T14:40:08.717Z,195
2018-06-03T14:41:18.841Z,240
2018-06-03T14:42:28.944Z,235
2018-06-03T14:43:38.792Z,225
2018-06-03T14:44:48.397Z,220
2018-06-03T14:45:58.277Z,150
2018-06-03T14:47:08.403Z,150
2018-06-03T14:48:18.534Z,150
2018-06-03T14:49:28.653Z,145
2018-06-03T14:50:39.329Z,130
2018-06-03T14:51:49.468Z,130
2018-06-03T14:52:59.615Z,125
2018-06-03T14:54:09.760Z,130
2018-06-03T14:55:19.866Z,130
2018-06-03T14:56:30.040Z,120
2018-06-03T14:57:39.902Z,120
2018-06-03T14:58:49.732Z,120
2018-06-03T14:59:59.857Z,125
2018-06-03T15:01:09.943Z,135
2018-06-03T15:02:20.058Z,195
2018-06-03T15:03:30.158Z,140
2018-06-03T15:04:40.012Z,130
2018-06-03T15:05:50.121Z,125
2018-06-03T15:07:00.330Z,120
2018-06-03T15:08:10.648Z,120
2018-06-03T15:09:20.825Z,115
2018-06-03T15:10:31.005Z,115
2018-06-03T15:11:41.310Z,125
2018-06-03T15:12:51.453Z,150
2018-06-03T15:14:01.295Z,195
2018-06-03T15:15:11.460Z,200
2018-06-03T15:16:21.615Z,200
2018-06-03T15:17:31.794Z,200
2018-06-03T15:18:41.907Z,195
2018-06-03T15:19:52.013Z,170
2018-06-03T15:21:02.113Z,145
2018-06-03T15:22:12.235Z,175
2018-06-03T15:23:22.104Z,175
2018-06-03T15:24:32.291Z,180
2018-06-03T15:25:42.135Z,185
2018-06-03T15:26:51.986Z,135
2018-06-03T15:28:01.590Z,135
2018-06-03T15:29:11.421Z,135
2018-06-03T15:30:21.591Z,180
2018-06-03T15:31:31.439Z,190
2018-06-03T15:32:41.559Z,190
2018-06-03T15:33:51.797Z,150
2018-06-03T15:35:01.679Z,145
2018-06-03T15:36:11.264Z,145
2018-06-03T15:37:21.384Z,155
2018-06-03T15:38:31.530Z,190
2018-06-03T15:39:41.662Z,175
2018-06-03T15:40:51.801Z,175
2018-06-03T15:42:01.938Z,170
2018-06-03T15:43:12.062Z,130
2018-06-03T15:44:22.176Z,125
2018-06-03T15:45:32.262Z,125
2018-06-03T15:46:42.370Z,155
2018-06-03T15:47:52.482Z,125
2018-06-03T15:49:02.890Z,150
2018-06-03T15:50:13.037Z,160
2018-06-03T15:51:23.110Z,160
2018-06-03T15:52:33.219Z,160
2018-06-03T15:53:43.396Z,160
2018-06-03T15:54:53.514Z,160
2018-06-03T15:56:03.646Z,160
2018-06-03T15:57:13.776Z,160
2018-06-03T15:58:23.890Z,160
2018-06-03T15:59:33.522Z,155
2018-06-03T16:00:43.630Z,155
2018-06-03T16:01:53.776Z,150
2018-06-03T16:03:03.978Z,155
2018-06-03T16:04:14.109Z,155
2018-06-03T16:05:24.222Z,150
2018-06-03T16:06:34.354Z,150
2018-06-03T16:07:44.457Z,135
2018-06-03T16:08:54.580Z,150
2018-06-03T16:10:04.682Z,140
2018-06-03T16:11:15.049Z,135
2018-06-03T16:12:25.147Z,140
2018-06-03T16:13:35.363Z,145
2018-06-03T16:14:45.197Z,130
2018-06-03T16:15:55.292Z,130
2018-06-03T16:17:05.448Z,155
2018-06-03T16:18:15.555Z,155
2018-06-03T16:19:25.717Z,155
2018-06-03T16:20:35.817Z,160
2018-06-03T16:21:45.924Z,160
2018-06-03T16:22:56.159Z,160
2018-06-03T16:24:06.264Z,165
2018-06-03T16:25:16.381Z,165
2018-06-03T16:26:26.484Z,165
2018-06-03T16:27:36.618Z,165
2018-06-03T16:28:46.756Z,170
2018-06-03T16:29:56.876Z,165
2018-06-03T16:31:06.974Z,165
2018-06-03T16:32:17.083Z,170
2018-06-03T16:33:27.196Z,170
2018-06-03T16:34:37.384Z,170
2018-06-03T16:35:47.222Z,165
2018-06-03T16:36:57.351Z,170
2018-06-03T16:38:07.314Z,165
2018-06-03T16:39:17.428Z,170
2018-06-03T16:40:27.681Z,165
2018-06-03T16:41:37.806Z,165
2018-06-03T16:42:47.957Z,165
2018-06-03T16:43:58.050Z,165
2018-06-03T16:45:07.623Z,165
2018-06-03T16:46:17.653Z,165
2018-06-03T16:47:27.780Z,155
2018-06-03T16:48:38.083Z,155
2018-06-03T16:49:48.224Z,155